Terminal Aerodrome Forecast
Issued by NWS Sterling, VA

Current Version | Previous Version | Graphics & Text | Print | Product List | Glossary On
Versions: 1 2 3 4 5 6 7 8 9 10 11 12 13 14 15 16 17 18 19
000
FTUS41 KLWX 301451 AAB
TAFMRB
TAF AMD
KMRB 301451Z 3015/3112 21007KT P6SM SCT030 BKN070
      TEMPO 3015/3018 4SM -TSRA BKN040CB
     FM301800 28007KT P6SM SCT060
     FM302200 31009KT P6SM FEW100
     FM310200 30004KT P6SM SKC=

USA.gov is the U.S. government's official web portal to all federal, state and local government web resources and services.